SBCZ/CZS METAR and TAF weather

Enter ICAO airport designator
Station Type Date Time Source
SBCZ METAR 2019/10/21 02:00 UTC NOAA

SBCZ 210200Z 04001KT CAVOK 24/23 Q1011


Station Type Date Time Source
SBCZ Decoded METAR 2019/10/21 02:00 UTC NOAA

Cruzeiro Do Sul, Brazil (SBCZ) 07-38S 072-40W
Oct 20, 2019 - 10:00 PM EDT / 2019.10.21 0200 UTC
Wind: from the NE (040 degrees) at 1 MPH (1 KT):0
Visibility: greater than 7 mile(s):0
Temperature: 75 F (24 C)
Dew Point: 73 F (23 C)
Relative Humidity: 94%
Pressure (altimeter): 29.85 in. Hg (1011 hPa)
ob: SBCZ 210200Z 04001KT CAVOK 24/23 Q1011
cycle: 2

Station Type Date Time Source
SBCZ TAF 2019/09/19 12:12 UTC NOAA

TAF SBCZ 190900Z 1912/2012 27005KT 9999 FEW020 FEW025TCU TX34/1919Z TN23/2006Z PROB30
TEMPO 1912/1916 4000 TSRA BKN020 FEW025CB
BECMG 1916/1918 27005KT
BECMG 1923/2001 00000KT CAVOK PROB30 2006/2012 4000 BR
RMK PGZ

Example: see airport list